Time;durP1;ratioP1;P1;durP2;ratioP2;P2;SDS_P1;SDS_P2;PMS_P1;PMS_P2;Temp;Humidity;BMP_temperature;BMP_pressure;BME280_temperature;BME280_humidity;BME280_pressure;Samples;Min_cycle;Max_cycle;Signal;HPM_P1;HPM_P2
2022/09/13 00:00:16;;;;;;;12.75;8.48;;;;;;;10.27;79.38;100167.62;1971989;90;29637;-66
2022/09/13 00:03:20;;;;;;;12.98;9.00;;;;;;;10.26;79.39;100169.05;1983900;88;27680;-65
2022/09/13 00:06:22;;;;;;;12.35;8.58;;;;;;;10.22;79.41;100158.09;2011510;88;29123;-65
2022/09/13 00:09:23;;;;;;;14.60;8.03;;;;;;;10.18;79.44;100158.70;2011909;88;31659;-64
2022/09/13 00:12:25;;;;;;;12.43;8.90;;;;;;;10.16;79.48;100158.79;2012221;88;32771;-65
2022/09/13 00:15:27;;;;;;;11.22;8.13;;;;;;;10.14;79.46;100151.80;2012431;88;30022;-65
2022/09/13 00:18:28;;;;;;;10.53;7.97;;;;;;;10.12;79.50;100146.98;2012321;88;28155;-64
2022/09/13 00:21:32;;;;;;;13.53;9.08;;;;;;;10.09;79.54;100149.35;2012165;88;29926;-64
2022/09/13 00:24:34;;;;;;;13.72;8.88;;;;;;;10.08;79.51;100144.94;2021326;87;31411;-66
2022/09/13 00:27:36;;;;;;;14.15;9.45;;;;;;;10.06;79.57;100146.83;2043238;87;33003;-65
2022/09/13 00:30:37;;;;;;;15.58;9.78;;;;;;;10.02;79.61;100137.20;2043115;87;29643;-63
2022/09/13 00:33:39;;;;;;;16.75;10.08;;;;;;;10.01;79.82;100142.16;2043237;87;27644;-63
2022/09/13 00:36:40;;;;;;;11.08;9.10;;;;;;;10.01;79.91;100142.16;2043014;87;29070;-65
2022/09/13 00:39:41;;;;;;;13.48;9.45;;;;;;;10.00;79.84;100129.72;2042989;87;31477;-66
2022/09/13 00:42:42;;;;;;;10.88;8.70;;;;;;;9.98;79.85;100133.83;2042265;87;32764;-66
2022/09/13 00:45:45;;;;;;;13.00;9.70;;;;;;;9.98;79.90;100136.50;2042965;87;30016;-65
2022/09/13 00:48:49;;;;;;;12.40;8.75;;;;;;;9.96;80.02;100130.81;2042864;87;27736;-65
2022/09/13 00:51:55;;;;;;;14.00;8.75;;;;;;;9.94;79.96;100133.58;2037612;87;28677;-65
2022/09/13 00:55:14;;;;;;;16.02;9.53;;;;;;;9.92;79.95;100120.73;2012148;88;31037;-65
2022/09/13 00:58:23;;;;;;;13.60;8.68;;;;;;;9.91;80.02;100133.72;2012199;86;33370;-65
2022/09/13 01:01:30;;;;;;;16.00;9.15;;;;;;;9.87;80.02;100119.64;2032197;86;30775;-65
2022/09/13 01:04:33;;;;;;;13.48;9.60;;;;;;;9.85;79.99;100123.31;2042841;86;27692;-64
2022/09/13 01:07:34;;;;;;;11.83;8.78;;;;;;;9.83;79.96;100126.56;2039263;87;29916;-66
2022/09/13 01:10:39;;;;;;;14.50;9.50;;;;;;;9.80;79.96;100128.90;2038471;87;31454;-66
2022/09/13 01:13:38;;;;;;;14.75;9.88;;;;;;;9.78;79.98;100127.25;2038938;87;33049;-66
2022/09/13 01:16:40;;;;;;;11.93;8.63;;;;;;;9.76;80.00;100128.68;2039293;87;30432;-65
2022/09/13 01:19:41;;;;;;;15.63;8.45;;;;;;;9.73;80.04;100125.66;2039111;87;27973;-66
2022/09/13 01:23:17;;;;;;;10.50;8.35;;;;;;;9.71;80.06;100118.66;2020748;87;28566;-66
2022/09/13 01:26:47;;;;;;;12.40;8.65;;;;;;;9.69;80.04;100121.39;1997657;89;31434;-65
2022/09/13 01:30:09;;;;;;;15.93;8.50;;;;;;;9.66;80.04;100117.56;1998487;89;33350;-65
2022/09/13 01:33:37;;;;;;;12.33;8.60;;;;;;;9.64;80.07;100117.22;2011744;87;29649;-66
2022/09/13 01:37:04;;;;;;;12.20;8.55;;;;;;;9.61;80.06;100110.67;2028656;87;27732;-65
2022/09/13 01:40:42;;;;;;;13.10;8.25;;;;;;;9.56;80.12;100114.47;2028352;87;29322;-66
2022/09/13 01:44:24;;;;;;;10.75;8.48;;;;;;;9.54;80.18;100109.66;2028426;87;32399;-66
2022/09/13 01:47:46;;;;;;;10.00;8.15;;;;;;;9.51;80.19;100107.61;2028161;87;34205;-66
2022/09/13 01:51:17;;;;;;;10.63;8.10;;;;;;;9.47;80.18;100104.20;2028389;87;30766;-64
2022/09/13 01:54:30;;;;;;;11.53;8.20;;;;;;;9.45;80.22;100096.71;1997802;87;27661;-66
2022/09/13 01:57:49;;;;;;;11.53;8.60;;;;;;;9.41;80.22;100094.66;1998056;89;28728;-66
2022/09/13 02:01:05;;;;;;;11.95;8.45;;;;;;;9.40;80.31;100096.09;1998074;89;31449;-65
2022/09/13 02:04:13;;;;;;;19.82;9.08;;;;;;;9.37;80.29;100081.05;1933214;91;33391;-66
2022/09/13 02:07:33;;;;;;;14.50;9.28;;;;;;;9.35;80.37;100074.90;1932883;92;29673;-66
2022/09/13 02:10:58;;;;;;;12.90;8.80;;;;;;;9.33;80.36;100070.13;1932940;92;27674;-65
2022/09/13 02:14:19;;;;;;;15.35;9.23;;;;;;;9.31;80.45;100061.31;1932537;92;28784;-66
2022/09/13 02:17:23;;;;;;;13.05;8.85;;;;;;;9.31;80.67;100065.77;1932840;92;31068;-65
2022/09/13 02:20:31;;;;;;;15.68;8.90;;;;;;;9.29;80.68;100051.16;1932797;92;33372;-65
2022/09/13 02:23:41;;;;;;;19.45;9.80;;;;;;;9.29;80.67;100052.48;1932571;92;29661;-66
2022/09/13 02:26:45;;;;;;;12.75;8.93;;;;;;;9.27;80.62;100050.36;1932806;92;27742;-67
2022/09/13 02:30:05;;;;;;;10.13;8.13;;;;;;;9.29;80.66;100041.80;2254180;79;32197;-64
2022/09/13 02:33:18;;;;;;;9.53;7.78;;;;;;;9.23;80.62;100040.30;2220800;80;27592;-64
2022/09/13 02:36:26;;;;;;;13.10;8.80;;;;;;;9.22;80.62;100044.36;2220937;80;29545;-66
2022/09/13 02:39:30;;;;;;;11.48;8.25;;;;;;;9.20;80.57;100046.23;2220637;80;31091;-66
2022/09/13 02:42:36;;;;;;;13.53;9.53;;;;;;;9.18;80.59;100040.98;2210556;80;33405;-66
2022/09/13 02:45:43;;;;;;;13.30;9.85;;;;;;;9.16;80.70;100033.50;2176261;81;28413;-66
2022/09/13 02:48:59;;;;;;;12.80;9.20;;;;;;;9.15;80.79;100031.77;2177128;81;27621;-66
2022/09/13 02:52:25;;;;;;;;;;;;;;;9.13;80.78;100034.98;2179760;81;29054;-65
2022/09/13 02:56:04;;;;;;;14.45;9.03;;;;;;;9.11;80.83;100028.83;2213572;80;31167;-66
2022/09/13 02:59:13;;;;;;;13.88;9.65;;;;;;;9.07;80.77;100032.62;2220434;80;34015;-66
2022/09/13 03:02:21;;;;;;;16.80;9.33;;;;;;;9.05;80.79;100023.80;2220835;80;28750;-66
2022/09/13 03:05:25;;;;;;;10.15;9.08;;;;;;;9.02;80.76;100013.26;2221161;80;27735;-66
2022/09/13 03:08:27;;;;;;;10.28;8.03;;;;;;;9.00;80.81;100009.79;2221341;80;28986;-66
2022/09/13 03:11:58;;;;;;;11.97;10.65;;;;;;;9.01;81.19;100009.73;2220686;80;32215;-66
2022/09/13 03:15:23;;;;;;;15.80;9.13;;;;;;;9.00;81.06;100003.11;2182109;81;34144;-66
2022/09/13 03:18:54;;;;;;;11.37;9.43;;;;;;;8.98;81.09;100001.86;2182437;81;29855;-65
2022/09/13 03:22:07;;;;;;;11.97;10.23;;;;;;;8.96;81.06;99991.71;2182140;81;27630;-65
2022/09/13 03:25:16;;;;;;;14.28;11.12;;;;;;;8.97;81.30;99993.45;2181723;81;29059;-65
2022/09/13 03:28:46;;;;;;;13.28;10.55;;;;;;;8.96;81.36;99991.71;2181328;81;32263;-65
2022/09/13 03:32:14;;;;;;;12.90;10.58;;;;;;;8.96;81.35;99984.55;2182103;81;32756;-65
2022/09/13 03:35:43;;;;;;;16.65;10.28;;;;;;;8.96;81.53;99977.02;2181996;81;28954;-64
2022/09/13 03:38:56;;;;;;;14.28;10.10;;;;;;;8.96;81.62;99976.53;2182309;80;28332;-67
2022/09/13 03:42:01;;;;;;;12.63;8.98;;;;;;;8.96;81.57;99973.86;2181674;80;30075;-63
2022/09/13 03:45:02;;;;;;;;;;;;;;;8.94;81.52;99967.72;2186634;81;31186;-65
2022/09/13 03:48:04;;;;;;;12.20;10.03;;;;;;;8.95;81.56;99968.61;2185166;81;32998;-64
2022/09/13 03:51:06;;;;;;;11.25;9.38;;;;;;;8.91;81.56;99963.89;2185486;81;29107;-65
2022/09/13 03:54:24;;;;;;;13.68;11.15;;;;;;;8.91;81.51;99961.22;2185579;81;27702;-65
2022/09/13 03:57:26;;;;;;;13.30;10.82;;;;;;;8.91;81.63;99965.22;2185425;81;29853;-63
2022/09/13 04:00:28;;;;;;;12.68;10.18;;;;;;;8.94;81.87;99965.53;2184951;81;32184;-65
2022/09/13 04:03:29;;;;;;;11.73;10.53;;;;;;;8.94;81.96;99969.06;2185529;81;34032;-64
2022/09/13 04:06:31;;;;;;;16.15;11.08;;;;;;;8.96;82.12;99973.01;2185436;81;29092;-66
2022/09/13 04:09:32;;;;;;;12.00;9.75;;;;;;;8.98;82.01;99968.46;2197571;80;27737;-65
2022/09/13 04:12:34;;;;;;;15.58;10.63;;;;;;;9.00;82.03;99965.70;2219826;80;30088;-65
2022/09/13 04:15:35;;;;;;;15.60;12.20;;;;;;;9.01;82.26;99966.98;2220057;80;31469;-65
2022/09/13 04:18:36;;;;;;;14.83;10.25;;;;;;;9.06;82.34;99970.27;2220136;80;33316;-65
2022/09/13 04:21:38;;;;;;;14.68;11.35;;;;;;;9.09;82.27;99961.27;2220210;80;29232;-64
2022/09/13 04:24:39;;;;;;;17.20;11.35;;;;;;;9.14;82.54;99965.04;2220211;80;28254;-63
2022/09/13 04:27:42;;;;;;;14.23;10.08;;;;;;;9.16;82.41;99968.02;2219573;79;29056;-65
2022/09/13 04:30:45;;;;;;;13.08;9.50;;;;;;;9.19;82.34;99958.97;2220032;80;31033;-67
2022/09/13 04:33:46;;;;;;;16.27;10.05;;;;;;;9.21;82.33;99961.98;2219689;80;33802;-66
2022/09/13 04:36:49;;;;;;;15.75;10.80;;;;;;;9.24;82.40;99963.18;2189265;80;28718;-67
2022/09/13 04:39:50;;;;;;;14.30;11.60;;;;;;;9.28;82.51;99967.41;2219462;80;27589;-67
2022/09/13 04:42:51;;;;;;;16.55;11.43;;;;;;;9.32;82.56;99965.92;2219422;80;28427;-67
2022/09/13 04:45:52;;;;;;;15.95;11.60;;;;;;;9.38;82.59;99965.63;2220099;80;31383;-64
2022/09/13 04:48:54;;;;;;;14.95;12.55;;;;;;;9.43;82.66;99964.94;2219732;80;34161;-67
2022/09/13 04:51:55;;;;;;;17.62;11.97;;;;;;;9.51;82.65;99965.88;2219927;80;29853;-66
2022/09/13 04:55:00;;;;;;;17.35;11.90;;;;;;;9.57;82.66;99962.42;2219761;80;27737;-67
2022/09/13 04:58:00;;;;;;;16.05;11.48;;;;;;;9.65;82.70;99967.83;2219145;80;29702;-68
2022/09/13 05:01:05;;;;;;;14.60;12.13;;;;;;;9.71;82.67;99960.84;2220103;80;32152;-67
2022/09/13 05:04:07;;;;;;;15.68;11.57;;;;;;;9.78;82.79;99955.55;2219309;80;32998;-66
2022/09/13 05:07:12;;;;;;;13.98;11.60;;;;;;;9.87;82.85;99959.55;2155726;80;28729;-68
2022/09/13 05:10:13;;;;;;;16.45;13.00;;;;;;;9.95;82.84;99961.83;2190946;80;27773;-67
2022/09/13 05:13:15;;;;;;;18.80;12.98;;;;;;;10.06;83.01;99961.27;2176708;81;29386;-67
2022/09/13 05:16:16;;;;;;;17.55;13.43;;;;;;;10.15;83.00;99965.66;2176616;81;31417;-68
2022/09/13 05:19:17;;;;;;;19.30;13.65;;;;;;;10.27;83.16;99969.95;2176637;81;34320;-67
2022/09/13 05:22:19;;;;;;;18.82;13.68;;;;;;;10.36;83.03;99962.78;2185101;80;29564;-67
2022/09/13 05:25:20;;;;;;;16.60;12.58;;;;;;;10.45;82.99;99966.81;2219843;80;28270;-65
2022/09/13 05:28:23;;;;;;;18.85;13.38;;;;;;;10.54;83.06;99959.59;2217785;80;28719;-67
2022/09/13 05:31:29;;;;;;;21.00;12.82;;;;;;;10.68;83.10;99959.30;2204288;80;31639;-67
2022/09/13 05:34:30;;;;;;;15.98;11.38;;;;;;;10.79;83.12;99960.92;2204571;80;33704;-67
2022/09/13 05:37:31;;;;;;;15.18;12.37;;;;;;;10.90;83.14;99961.17;2204633;80;29075;-67
2022/09/13 05:40:32;;;;;;;14.40;11.28;;;;;;;11.01;83.20;99953.87;2204688;80;27662;-66
2022/09/13 05:43:35;;;;;;;14.35;11.33;;;;;;;11.11;83.06;99952.87;2204442;80;28843;-66
2022/09/13 05:46:37;;;;;;;14.70;10.72;;;;;;;11.22;83.04;99946.39;2204522;80;31012;-67
2022/09/13 05:49:38;;;;;;;13.80;10.60;;;;;;;11.31;82.86;99948.17;2204043;80;34097;-67
2022/09/13 05:52:40;;;;;;;18.17;10.20;;;;;;;11.37;82.73;99936.60;2198379;80;28780;-65
2022/09/13 05:55:41;;;;;;;15.38;9.88;;;;;;;11.46;82.63;99938.34;2184049;81;27671;-66
2022/09/13 05:58:45;;;;;;;10.88;9.53;;;;;;;11.55;82.57;99931.95;2184162;81;29036;-66
2022/09/13 06:01:47;;;;;;;15.55;10.25;;;;;;;11.68;82.68;99936.11;2183677;81;31394;-66
2022/09/13 06:04:49;;;;;;;14.68;10.58;;;;;;;11.85;82.87;99928.86;2183659;81;33554;-66
2022/09/13 06:07:52;;;;;;;15.35;10.08;;;;;;;12.03;82.87;99922.86;2184025;81;29890;-66
2022/09/13 06:11:02;;;;;;;11.20;9.83;;;;;;;12.18;82.73;99914.34;2183877;81;27692;-66
2022/09/13 06:14:04;;;;;;;15.30;9.58;;;;;;;12.33;82.78;99919.70;2183921;81;29867;-64
2022/09/13 06:17:05;;;;;;;16.35;9.73;;;;;;;12.45;82.68;99911.73;2184015;81;30861;-65
2022/09/13 06:20:09;;;;;;;14.28;9.80;;;;;;;12.60;82.72;99908.52;2183894;81;34110;-64
2022/09/13 06:23:10;;;;;;;13.85;9.58;;;;;;;12.79;82.72;99896.58;2183763;80;28720;-65
2022/09/13 06:26:15;;;;;;;15.63;10.18;;;;;;;13.05;82.87;99895.36;2184320;80;27673;-65
2022/09/13 06:29:16;;;;;;;10.10;8.55;;;;;;;13.34;82.85;99887.99;2181534;81;28716;-63
2022/09/13 06:32:18;;;;;;;12.63;8.38;;;;;;;13.63;82.57;99882.96;2176792;81;30943;-64
2022/09/13 06:35:19;;;;;;;11.25;8.18;;;;;;;13.97;82.40;99879.25;2176215;81;33811;-63
2022/09/13 06:38:21;;;;;;;12.35;7.45;;;;;;;14.36;81.98;99876.50;2176798;81;28486;-65
2022/09/13 06:41:25;;;;;;;10.58;7.72;;;;;;;14.74;81.92;99865.63;2176717;81;27674;-65
2022/09/13 06:44:26;;;;;;;9.33;6.30;;;;;;;15.13;81.68;99865.48;2176617;81;29346;-66
2022/09/13 06:47:28;;;;;;;8.65;7.12;;;;;;;15.44;79.86;99837.95;2176200;81;32033;-65
2022/09/13 06:50:29;;;;;;;11.10;6.62;;;;;;;15.44;79.86;99837.95;2176600;81;32937;-64
2022/09/13 06:53:33;;;;;;;9.83;6.08;;;;;;;15.74;79.42;99856.30;2204944;80;29809;-65
2022/09/13 06:56:37;;;;;;;8.08;5.87;;;;;;;15.99;79.05;99861.13;2220180;80;27694;-65
2022/09/13 06:59:38;;;;;;;8.13;6.00;;;;;;;16.24;78.82;99855.13;2219967;80;28672;-65
2022/09/13 07:02:39;;;;;;;8.55;6.25;;;;;;;16.52;78.41;99860.51;2220089;80;31842;-65
2022/09/13 07:05:41;;;;;;;10.78;5.97;;;;;;;16.77;78.13;99862.53;2220051;80;33366;-65
2022/09/13 07:08:43;;;;;;;10.18;6.12;;;;;;;16.97;77.19;99856.83;2219996;80;29837;-66
2022/09/13 07:11:46;;;;;;;7.17;5.78;;;;;;;17.22;77.05;99860.19;2218908;80;27716;-66
2022/09/13 07:14:47;;;;;;;9.60;5.78;;;;;;;17.53;77.21;99858.07;2218852;80;28603;-66
2022/09/13 07:17:49;;;;;;;6.97;6.05;;;;;;;17.84;76.67;99854.05;2220103;80;31475;-64
2022/09/13 07:20:50;;;;;;;9.85;6.17;;;;;;;18.04;75.87;99855.03;2219659;80;33556;-64
2022/09/13 07:23:54;;;;;;;7.55;5.80;;;;;;;18.27;75.88;99853.48;2211479;80;29829;-65
2022/09/13 07:26:57;;;;;;;7.93;5.40;;;;;;;18.63;75.98;99847.95;2220502;80;27598;-65
2022/09/13 07:29:59;;;;;;;8.28;4.70;;;;;;;18.95;74.79;99853.66;2219713;80;29677;-64
2022/09/13 07:33:00;;;;;;;6.78;5.03;;;;;;;19.17;73.90;99838.10;2220046;80;31963;-65
2022/09/13 07:36:05;;;;;;;7.40;4.67;;;;;;;19.41;74.01;99844.92;2219744;80;34379;-65
2022/09/13 07:39:07;;;;;;;;;;;;;;;19.72;73.05;99846.08;2222949;80;29034;-64
2022/09/13 07:42:12;;;;;;;6.28;4.40;;;;;;;19.89;72.72;99846.70;2188412;80;27702;-66
2022/09/13 07:45:14;;;;;;;4.85;4.35;;;;;;;20.10;72.52;99850.23;2220138;80;28657;-64
2022/09/13 07:48:16;;;;;;;4.78;4.28;;;;;;;20.24;71.96;99851.59;2189140;80;31470;-62
2022/09/13 07:51:24;;;;;;;5.65;3.85;;;;;;;20.36;70.43;99849.02;2218934;80;33834;-64
2022/09/13 07:54:26;;;;;;;7.15;4.10;;;;;;;20.48;71.33;99848.31;2168310;80;29057;-64
2022/09/13 07:57:28;;;;;;;6.65;3.92;;;;;;;20.68;70.09;99849.56;2166892;81;27635;-65
2022/09/13 08:00:29;;;;;;;5.28;4.53;;;;;;;20.83;69.93;99848.58;2167700;82;28719;-63
2022/09/13 08:03:33;;;;;;;4.53;4.12;;;;;;;20.98;70.06;99848.39;2167067;82;31886;-63
2022/09/13 08:06:37;;;;;;;7.27;3.87;;;;;;;21.09;68.64;99852.23;2167935;82;33594;-63
2022/09/13 08:09:39;;;;;;;6.37;4.40;;;;;;;21.10;68.78;99843.55;2167586;82;36709;-64
2022/09/13 08:12:41;;;;;;;4.47;4.00;;;;;;;21.19;68.53;99839.90;2167861;82;27660;-64
2022/09/13 08:15:44;;;;;;;5.28;3.95;;;;;;;21.42;68.55;99839.42;2167411;82;28737;-64
2022/09/13 08:18:50;;;;;;;6.22;4.17;;;;;;;21.65;68.09;99838.42;2167372;82;31735;-64
2022/09/13 08:21:51;;;;;;;4.47;4.03;;;;;;;21.98;67.61;99844.08;2175225;80;33383;-65
2022/09/13 08:24:52;;;;;;;5.15;3.92;;;;;;;22.22;66.96;99834.30;2219334;80;29028;-65
2022/09/13 08:27:53;;;;;;;5.67;3.98;;;;;;;22.39;66.32;99832.50;2220058;80;27609;-65
2022/09/13 08:30:54;;;;;;;4.30;3.92;;;;;;;22.52;65.54;99825.74;2219268;80;28722;-65
2022/09/13 08:33:56;;;;;;;4.47;4.08;;;;;;;22.49;65.18;99812.42;2219877;80;31080;-65
2022/09/13 08:36:58;;;;;;;5.50;3.70;;;;;;;22.51;65.13;99824.03;2219645;80;33415;-65
2022/09/13 08:40:00;;;;;;;4.70;4.17;;;;;;;22.49;64.92;99816.52;2220065;80;29026;-65
2022/09/13 08:43:33;;;;;;;5.17;4.03;;;;;;;22.45;64.42;99826.39;2219590;80;27721;-63
2022/09/13 08:46:44;;;;;;;5.10;3.95;;;;;;;22.35;64.00;99824.30;2219856;80;29183;-65
2022/09/13 08:49:50;;;;;;;5.70;4.03;;;;;;;22.22;63.46;99818.45;2218193;80;31499;-64
2022/09/13 08:53:15;;;;;;;4.28;3.87;;;;;;;22.16;64.09;99818.07;2199614;80;32966;-65
2022/09/13 08:56:36;;;;;;;4.28;3.58;;;;;;;22.12;64.12;99813.11;2187678;80;30240;-64
2022/09/13 08:59:46;;;;;;;4.40;3.80;;;;;;;22.09;63.65;99817.53;2218891;80;28210;-64
2022/09/13 09:02:56;;;;;;;5.22;4.28;;;;;;;22.10;63.93;99811.89;2219909;80;28685;-64
2022/09/13 09:05:57;;;;;;;5.12;4.65;;;;;;;22.12;62.71;99815.84;2220118;80;31381;-64
2022/09/13 09:09:06;;;;;;;5.62;3.98;;;;;;;22.16;63.44;99804.43;2189259;80;33400;-65
2022/09/13 09:12:22;;;;;;;4.95;3.67;;;;;;;22.24;63.36;99803.61;2220288;80;29909;-65
2022/09/13 09:15:32;;;;;;;4.90;3.83;;;;;;;22.38;63.32;99795.80;2220253;80;27625;-64
2022/09/13 09:18:38;;;;;;;4.80;4.20;;;;;;;22.51;63.29;99793.48;2220422;80;28894;-64
2022/09/13 09:21:40;;;;;;;5.50;4.10;;;;;;;22.73;62.75;99785.69;2217250;80;31108;-65
2022/09/13 09:24:46;;;;;;;7.62;4.35;;;;;;;22.91;62.65;99781.45;2173765;80;33763;-65
2022/09/13 09:27:47;;;;;;;13.55;4.60;;;;;;;23.03;61.89;99772.39;2167367;82;29346;-63
2022/09/13 09:31:23;;;;;;;5.72;4.25;;;;;;;23.18;61.91;99765.73;2178064;81;27631;-65
2022/09/13 09:35:22;;;;;;;6.37;4.08;;;;;;;23.42;61.72;99760.78;2190830;81;29168;-64
2022/09/13 09:38:41;;;;;;;5.22;4.05;;;;;;;23.63;60.75;99759.38;2191041;81;31135;-64
2022/09/13 09:41:44;;;;;;;4.80;4.05;;;;;;;23.82;60.58;99758.98;2191294;81;33013;-64
2022/09/13 09:44:52;;;;;;;4.00;3.60;;;;;;;23.95;59.88;99758.41;2191262;81;29803;-64
2022/09/13 09:47:55;;;;;;;5.42;3.80;;;;;;;24.01;59.25;99754.13;2190821;81;27667;-64
2022/09/13 09:50:57;;;;;;;4.28;3.87;;;;;;;24.01;59.20;99752.77;2190653;81;29026;-64
2022/09/13 09:54:04;;;;;;;3.75;3.45;;;;;;;24.05;58.61;99750.55;2223707;79;31396;-64
2022/09/13 09:57:10;;;;;;;10.05;3.95;;;;;;;24.04;59.01;99744.20;2230391;79;33449;-64
2022/09/13 10:00:13;;;;;;;3.55;3.25;;;;;;;24.03;58.94;99737.56;2228987;79;29818;-64
2022/09/13 10:03:25;;;;;;;4.83;3.30;;;;;;;23.94;58.61;99738.91;2231010;79;27637;-64
2022/09/13 10:06:28;;;;;;;10.43;3.52;;;;;;;23.84;59.08;99736.91;2229414;79;29852;-63
2022/09/13 10:09:30;;;;;;;8.40;3.65;;;;;;;23.68;58.33;99728.23;2230750;79;31410;-63
2022/09/13 10:12:36;;;;;;;5.67;3.60;;;;;;;23.50;58.55;99724.38;2230827;79;34111;-64
2022/09/13 10:15:52;;;;;;;6.05;3.45;;;;;;;23.32;58.56;99719.13;2230802;79;29204;-63
2022/09/13 10:18:54;;;;;;;3.65;3.27;;;;;;;23.12;58.63;99720.83;2230599;79;27726;-62
2022/09/13 10:22:07;;;;;;;6.22;3.42;;;;;;;22.91;58.70;99709.08;2168822;79;28693;-63
2022/09/13 10:25:19;;;;;;;3.75;3.25;;;;;;;22.69;58.73;99702.39;2216052;79;31031;-62
2022/09/13 10:28:21;;;;;;;5.65;3.60;;;;;;;22.49;59.07;99697.77;2230013;79;33832;-64
2022/09/13 10:31:38;;;;;;;5.17;4.40;;;;;;;22.30;59.51;99688.34;2216343;79;29408;-64
2022/09/13 10:34:42;;;;;;;8.15;3.87;;;;;;;22.19;59.92;99690.53;2204499;80;27599;-64
2022/09/13 10:37:44;;;;;;;6.53;4.20;;;;;;;22.12;60.75;99691.19;2191414;80;29096;-65
2022/09/13 10:40:47;;;;;;;9.38;4.83;;;;;;;22.14;61.25;99693.77;2183456;81;31029;-65
2022/09/13 10:43:58;;;;;;;10.10;5.12;;;;;;;22.24;62.19;99690.89;2183557;81;33801;-64
2022/09/13 10:47:05;;;;;;;6.12;4.90;;;;;;;22.41;62.81;99682.21;2183592;81;29012;-64
2022/09/13 10:50:26;;;;;;;7.92;3.83;;;;;;;22.61;63.09;99682.77;2183378;81;27639;-65
2022/09/13 10:53:41;;;;;;;7.22;4.33;;;;;;;22.81;62.93;99686.03;2199331;80;29643;-64
2022/09/13 10:56:42;;;;;;;6.62;4.45;;;;;;;23.05;63.32;99676.95;2204669;80;30475;-65
2022/09/13 10:59:49;;;;;;;5.10;4.40;;;;;;;23.25;62.63;99680.69;2204289;80;34218;-65
2022/09/13 11:03:33;;;;;;;6.03;3.58;;;;;;;23.39;62.75;99672.81;2204342;80;30157;-65
2022/09/13 11:07:14;;;;;;;3.95;3.55;;;;;;;23.52;62.19;99669.84;2201494;80;27833;-65
2022/09/13 11:10:43;;;;;;;4.67;3.67;;;;;;;23.68;61.83;99661.23;2202290;80;27975;-62
2022/09/13 11:14:35;;;;;;;6.00;3.80;;;;;;;23.87;61.27;99659.10;2204604;80;35326;-63
2022/09/13 11:18:06;;;;;;;6.72;3.58;;;;;;;24.00;61.27;99655.83;2204312;80;32968;-63
2022/09/13 11:21:42;;;;;;;5.53;4.05;;;;;;;24.17;60.77;99661.53;2204520;80;29038;-64
2022/09/13 11:25:24;;;;;;;4.70;3.50;;;;;;;24.37;60.47;99652.32;2185299;80;27576;-64
2022/09/13 11:28:47;;;;;;;5.80;3.83;;;;;;;24.63;60.50;99653.84;2204946;80;29090;-63
2022/09/13 11:32:10;;;;;;;3.22;2.92;;;;;;;24.90;58.96;99648.00;2207816;80;31210;-62
2022/09/13 11:35:49;;;;;;;3.75;2.77;;;;;;;25.00;58.13;99646.66;2211100;80;33022;-61
2022/09/13 11:39:14;;;;;;;3.15;2.85;;;;;;;25.07;57.48;99642.66;2209681;80;29376;-64
2022/09/13 11:42:43;;;;;;;3.50;2.95;;;;;;;25.18;55.89;99638.10;2209239;80;27713;-64
2022/09/13 11:45:59;;;;;;;3.50;3.20;;;;;;;25.25;56.47;99639.56;2111847;83;29280;-67
2022/09/13 11:49:30;;;;;;;5.20;3.70;;;;;;;25.28;56.19;99634.22;2082822;85;31407;-62
2022/09/13 11:53:15;;;;;;;3.30;2.92;;;;;;;25.25;55.88;99635.45;2082000;85;33012;-62
2022/09/13 11:56:33;;;;;;;3.58;3.22;;;;;;;25.22;55.33;99631.71;2047510;86;30209;-63
2022/09/13 11:59:45;;;;;;;6.12;3.40;;;;;;;25.16;54.99;99636.06;2048159;86;27603;-63
2022/09/13 12:02:56;;;;;;;3.65;3.30;;;;;;;25.07;54.56;99632.22;2044841;86;29077;-66
2022/09/13 12:06:09;;;;;;;5.58;2.95;;;;;;;24.97;55.01;99625.14;2048419;86;31436;-63
2022/09/13 12:13:03;;;;;;;5.37;3.35;;;;;;;24.79;54.92;99621.36;1935541;90;27801;-63
2022/09/13 12:16:08;;;;;;;5.08;3.17;;;;;;;24.70;54.69;99617.02;1958752;90;27898;-63
2022/09/13 12:22:43;;;;;;;5.90;3.77;;;;;;;24.53;54.89;99602.06;1943492;90;27818;-63
2022/09/13 12:26:04;;;;;;;5.62;3.83;;;;;;;24.65;54.87;99620.28;1957219;90;29669;-67
2022/09/13 12:29:43;;;;;;;;;;;;;;;;;;;;;
2022/09/13 12:32:46;;;;;;;8.48;3.67;;;;;;;24.61;54.76;99605.75;1890623;93;27785;-63
2022/09/13 12:36:15;;;;;;;5.62;3.85;;;;;;;24.55;53.92;99593.66;1888980;94;27962;-64
2022/09/13 12:52:30;;;;;;;8.00;4.47;;;;;;;24.03;54.35;99587.91;1834368;95;27859;-64
2022/09/13 12:56:02;;;;;;;6.67;4.08;;;;;;;23.94;54.70;99589.81;1822776;97;28740;-67
2022/09/13 12:59:34;;;;;;;4.70;3.72;;;;;;;23.86;54.64;99588.52;1784329;97;32327;-64
2022/09/13 13:03:10;;;;;;;4.17;3.47;;;;;;;23.81;55.01;99582.22;1826407;97;32990;-63
2022/09/13 13:10:41;;;;;;;5.62;3.40;;;;;;;23.60;54.92;99572.42;1756807;99;27858;-65
2022/09/13 13:19:36;;;;;;;6.33;3.95;;;;;;;23.46;55.18;99572.16;1629415;106;27862;-63
2022/09/13 13:22:53;;;;;;;5.03;3.77;;;;;;;23.49;55.90;99568.20;1542308;114;33206;-63
2022/09/13 13:26:56;;;;;;;;;;;;;;;;;;;;;
2022/09/13 13:30:45;;;;;;;5.83;3.65;;;;;;;23.60;55.91;99556.85;1546396;113;27925;-69
2022/09/13 13:34:23;;;;;;;4.37;3.90;;;;;;;23.64;55.71;99554.10;1575198;110;27813;-64
2022/09/13 13:37:30;;;;;;;5.92;3.55;;;;;;;23.71;55.40;99548.76;1611515;110;28017;-65
2022/09/13 13:40:32;;;;;;;4.25;3.83;;;;;;;23.74;55.40;99551.67;1613683;110;33477;-65
2022/09/13 13:43:42;;;;;;;7.92;3.75;;;;;;;23.77;55.59;99548.05;1613231;110;28270;-65
2022/09/13 13:47:02;;;;;;;;;;;;;;;;;;;;;
2022/09/13 13:50:26;;;;;;;4.33;3.50;;;;;;;23.81;55.33;99546.66;1626562;108;28831;-63
2022/09/13 13:53:41;;;;;;;5.92;4.00;;;;;;;23.82;55.48;99542.89;1629026;107;30625;-64
2022/09/13 13:56:48;;;;;;;4.33;3.90;;;;;;;23.80;55.06;99531.78;1661095;105;30432;-64
2022/09/13 14:00:21;;;;;;;;;;;;;;;23.80;55.42;99529.91;1696706;105;29094;-67
2022/09/13 14:03:50;;;;;;;8.95;4.80;;;;;;;23.84;55.15;99526.28;1695266;104;27919;-62
2022/09/13 14:07:15;;;;;;;5.72;4.10;;;;;;;23.82;55.34;99511.44;1750110;100;29997;-63
2022/09/13 14:10:33;;;;;;;5.37;4.15;;;;;;;23.85;55.38;99516.19;1902862;91;32301;-64
2022/09/13 14:13:49;;;;;;;4.10;3.70;;;;;;;23.88;55.38;99507.12;1989007;88;33352;-62
2022/09/13 14:17:30;;;;;;;5.58;4.47;;;;;;;23.93;55.45;99501.92;2003666;88;30164;-62
2022/09/13 14:20:32;;;;;;;5.70;4.37;;;;;;;23.94;54.85;99505.00;2090562;84;27720;-65
2022/09/13 14:23:34;;;;;;;4.60;4.20;;;;;;;23.89;54.84;99497.87;2138295;81;29626;-63
2022/09/13 14:26:35;;;;;;;4.45;3.77;;;;;;;23.89;54.98;99495.64;2140676;83;32160;-62
2022/09/13 14:29:37;;;;;;;8.10;4.72;;;;;;;23.87;55.00;99487.63;2101348;84;32955;-64
2022/09/13 14:32:43;;;;;;;5.47;3.70;;;;;;;23.90;55.22;99487.77;2142664;82;30228;-64
2022/09/13 14:35:44;;;;;;;4.28;3.87;;;;;;;23.87;55.04;99487.63;2147215;82;27739;-64
2022/09/13 14:38:50;;;;;;;4.47;3.60;;;;;;;23.89;55.14;99496.51;2148143;82;29060;-64
2022/09/13 14:42:13;;;;;;;6.30;4.00;;;;;;;23.88;55.08;99492.57;2147618;82;31136;-63
2022/09/13 14:45:29;;;;;;;5.97;3.77;;;;;;;23.88;55.05;99489.84;2129045;83;33335;-63
2022/09/13 14:48:54;;;;;;;5.87;4.17;;;;;;;23.84;54.99;99485.26;2127234;83;29201;-63
2022/09/13 14:51:58;;;;;;;4.33;3.93;;;;;;;23.83;55.02;99483.55;2128975;83;27644;-63
2022/09/13 14:55:03;;;;;;;;;;;;;;;23.83;54.88;99480.82;2132966;83;29442;-64
2022/09/13 14:58:09;;;;;;;6.08;3.95;;;;;;;23.80;54.78;99479.81;2148016;82;30366;-65
2022/09/13 15:01:21;;;;;;;6.22;4.72;;;;;;;23.80;55.12;99476.58;2145261;82;34823;-63
2022/09/13 15:04:23;;;;;;;7.33;4.00;;;;;;;23.81;55.21;99478.78;2148816;82;29022;-63
2022/09/13 15:07:31;;;;;;;7.12;4.58;;;;;;;23.76;55.14;99476.59;2149166;82;28287;-65
2022/09/13 15:10:33;;;;;;;6.05;4.33;;;;;;;23.72;55.34;99475.79;2148604;82;29721;-64
2022/09/13 15:13:36;;;;;;;8.85;4.20;;;;;;;23.63;55.45;99464.05;2148662;82;32053;-64
2022/09/13 15:18:22;;;;;;;7.30;4.28;;;;;;;23.55;55.65;99463.60;2146289;82;33790;-68
2022/09/13 15:21:08;;;;;;;7.05;4.25;;;;;;;23.46;55.75;99465.54;1937688;90;28060;-69
2022/09/13 15:24:30;;;;;;;4.70;4.30;;;;;;;23.20;55.80;99445.34;1968676;90;27697;-66
2022/09/13 15:27:46;;;;;;;5.10;4.60;;;;;;;23.22;56.01;99462.44;1968880;90;29919;-63